Time;durP1;ratioP1;P1;durP2;ratioP2;P2;SDS_P1;SDS_P2;PMS_P1;PMS_P2;Temp;Humidity;BMP_temperature;BMP_pressure;BME280_temperature;BME280_humidity;BME280_pressure;Samples;Min_cycle;Max_cycle;Signal;HPM_P1;HPM_P2
2022/04/03 00:01:35;;;;;;;4.63;4.30;;;;;;;2.80;79.67;98676.59;1701287;80;21065;-71
2022/04/03 00:04:01;;;;;;;;;;;;;;;2.84;79.36;98673.92;1702774;82;21061;-71
2022/04/03 00:06:28;;;;;;;3.50;3.40;;;;;;;2.87;79.23;98685.92;1707282;82;20459;-72
2022/04/03 00:08:56;;;;;;;3.57;3.37;;;;;;;2.80;79.31;98681.86;1708704;82;21065;-73
2022/04/03 00:11:23;;;;;;;3.33;3.23;;;;;;;2.82;79.34;98684.32;1691152;82;21246;-71
2022/04/03 00:13:52;;;;;;;4.10;3.90;;;;;;;2.81;79.48;98678.25;1712230;82;21077;-73
2022/04/03 00:16:19;;;;;;;7.03;5.60;;;;;;;2.79;79.74;98684.19;1710036;82;21070;-71
2022/04/03 00:18:46;;;;;;;;;;;;;;;2.79;79.81;98685.50;1716092;83;21034;-72
2022/04/03 00:21:14;;;;;;;;;;;;;;;2.78;79.61;98680.41;1712346;82;20179;-72
2022/04/03 00:23:41;;;;;;;;;;;;;;;2.80;79.46;98684.49;1725087;81;20134;-71
2022/04/03 00:26:08;;;;;;;;;;;;;;;2.78;79.33;98687.80;1729128;80;20134;-71
2022/04/03 00:28:34;;;;;;;;;;;;;;;2.75;78.90;98685.55;1734321;81;20463;-71
2022/04/03 00:31:00;;;;;;;;;;;;;;;2.70;79.07;98682.63;1734465;80;20491;-72
2022/04/03 00:33:27;;;;;;;;;;;;;;;2.68;79.17;98689.37;1738183;80;20159;-68
2022/04/03 00:35:54;;;;;;;;;;;;;;;2.66;79.05;98694.50;1736400;80;20161;-72
2022/04/03 00:38:21;;;;;;;;;;;;;;;2.58;79.59;98691.92;1741752;81;20243;-73
2022/04/03 00:40:48;;;;;;;;;;;;;;;2.53;79.64;98690.64;1736098;81;20188;-71
2022/04/03 00:43:15;;;;;;;;;;;;;;;2.50;79.90;98690.98;1738284;81;20164;-72
2022/04/03 00:45:45;;;;;;;;;;;;;;;2.49;80.10;98687.25;1738017;81;20161;-72
2022/04/03 00:48:12;;;;;;;;;;;;;;;2.48;80.25;98697.43;1730612;80;20157;-70
2022/04/03 00:50:38;;;;;;;;;;;;;;;2.53;80.38;98706.43;1744370;81;20157;-70
2022/04/03 00:53:05;;;;;;;;;;;;;;;2.60;80.03;98694.72;1723441;81;20258;-71
2022/04/03 00:55:33;;;;;;;;;;;;;;;2.63;79.61;98690.91;1734816;81;20189;-69
2022/04/03 00:58:01;;;;;;;;;;;;;;;2.63;79.47;98698.80;1729611;80;20128;-74
2022/04/03 01:00:27;;;;;;;;;;;;;;;2.64;79.68;98691.23;1728632;79;20157;-70
2022/04/03 01:02:54;;;;;;;;;;;;;;;2.58;79.86;98678.77;1748295;81;20225;-70
2022/04/03 01:05:21;;;;;;;;;;;;;;;2.68;79.93;98691.20;1742150;81;20135;-72
2022/04/03 01:07:49;;;;;;;;;;;;;;;2.69;79.94;98689.71;1743453;81;20173;-70
2022/04/03 01:10:15;;;;;;;;;;;;;;;2.71;79.36;98698.71;1734423;81;20130;-72
2022/04/03 01:12:45;;;;;;;;;;;;;;;2.63;79.41;98696.97;1747523;79;20452;-71
2022/04/03 01:15:15;;;;;;;;;;;;;;;2.56;79.73;98697.35;1743766;80;20183;-72
2022/04/03 01:17:42;;;;;;;;;;;;;;;2.51;79.71;98700.53;1740254;81;20203;-72
2022/04/03 01:20:10;;;;;;;;;;;;;;;2.46;79.67;98698.91;1728913;81;20936;-70
2022/04/03 01:22:37;;;;;;;;;;;;;;;2.43;80.22;98703.23;1730488;81;20183;-74
2022/04/03 01:25:05;;;;;;;;;;;;;;;2.44;79.93;98703.53;1740818;81;21008;-73
2022/04/03 01:27:33;;;;;;;;;;;;;;;2.45;79.61;98705.19;1721999;81;20518;-71
2022/04/03 01:30:00;;;;;;;;;;;;;;;2.44;79.41;98708.80;1736372;81;20117;-72
2022/04/03 01:32:26;;;;;;;;;;;;;;;2.45;79.31;98711.77;1744327;81;20188;-72
2022/04/03 01:34:52;;;;;;;;;;;;;;;2.47;79.29;98720.29;1751606;80;20175;-70
2022/04/03 01:37:18;;;;;;;;;;;;;;;2.50;79.05;98724.37;1774053;80;20137;-72
2022/04/03 01:39:45;;;;;;;;;;;;;;;2.53;79.13;98722.72;1764321;80;20139;-70
2022/04/03 01:42:11;;;;;;;;;;;;;;;2.56;78.66;98732.05;1751091;80;20207;-73
2022/04/03 01:44:37;;;;;;;;;;;;;;;2.51;78.80;98733.41;1756599;80;20136;-71
2022/04/03 01:47:04;;;;;;;;;;;;;;;2.48;79.06;98739.52;1733363;81;20132;-72
2022/04/03 01:49:31;;;;;;;;;;;;;;;2.46;79.48;98737.05;1750687;81;20127;-72
2022/04/03 01:51:57;;;;;;;;;;;;;;;2.44;79.59;98730.34;1730646;81;20160;-71
2022/04/03 01:54:23;;;;;;;;;;;;;;;2.41;79.64;98735.47;1719222;81;20124;-71
2022/04/03 01:56:50;;;;;;;;;;;;;;;2.45;79.47;98730.64;1722120;81;20466;-73
2022/04/03 01:59:17;;;;;;;;;;;;;;;2.48;79.19;98730.30;1721740;81;20123;-72
2022/04/03 02:01:45;;;;;;;;;;;;;;;2.49;78.96;98730.13;1727138;81;20451;-72
2022/04/03 02:04:12;;;;;;;;;;;;;;;2.50;78.71;98739.64;1727391;81;20216;-70
2022/04/03 02:06:40;;;;;;;;;;;;;;;2.50;78.75;98737.02;1722630;81;20154;-71
2022/04/03 02:09:08;;;;;;;;;;;;;;;2.53;78.89;98735.36;1725012;81;20138;-71
2022/04/03 02:11:35;;;;;;;;;;;;;;;2.55;78.87;98730.44;1721774;81;20131;-72
2022/04/03 02:14:03;;;;;;;;;;;;;;;2.56;78.86;98733.37;1722774;81;20141;-74
2022/04/03 02:16:29;;;;;;;;;;;;;;;2.56;78.77;98732.05;1721149;82;20160;-71
2022/04/03 02:18:55;;;;;;;;;;;;;;;2.58;78.92;98741.42;1729570;81;20172;-71
2022/04/03 02:21:22;;;;;;;;;;;;;;;2.60;78.41;98738.59;1736764;81;20215;-71
2022/04/03 02:23:49;;;;;;;;;;;;;;;2.58;78.60;98734.01;1742532;81;20166;-72
2022/04/03 02:26:15;;;;;;;;;;;;;;;2.54;78.94;98736.17;1737995;82;20137;-70
2022/04/03 02:28:41;;;;;;;;;;;;;;;2.50;78.85;98740.96;1742432;81;20138;-71
2022/04/03 02:31:07;;;;;;;;;;;;;;;2.46;78.89;98742.81;1737783;81;20245;-70
2022/04/03 02:33:35;;;;;;;;;;;;;;;2.43;79.20;98737.89;1741328;81;20190;-71
2022/04/03 02:36:01;;;;;;;;;;;;;;;2.43;79.03;98742.68;1736366;81;20122;-70
2022/04/03 02:38:28;;;;;;;;;;;;;;;2.43;78.82;98745.78;1737943;81;20617;-71
2022/04/03 02:40:54;;;;;;;;;;;;;;;2.41;78.84;98742.04;1737060;81;20187;-68
2022/04/03 02:43:20;;;;;;;;;;;;;;;2.38;78.90;98745.01;1730741;81;20117;-68
2022/04/03 02:45:47;;;;;;;;;;;;;;;2.37;79.22;98737.28;1742652;81;20590;-70
2022/04/03 02:48:13;;;;;;;;;;;;;;;2.38;79.14;98743.69;1730327;81;20175;-71
2022/04/03 02:50:41;;;;;;;;;;;;;;;2.39;79.28;98742.68;1728611;81;20194;-73
2022/04/03 02:53:07;;;;;;;;;;;;;;;2.41;79.44;98741.20;1733103;81;20142;-70
2022/04/03 02:55:35;;;;;;;;;;;;;;;2.44;79.53;98739.55;1730262;81;20284;-70
2022/04/03 02:58:01;;;;;;;;;;;;;;;2.47;79.49;98738.70;1712464;81;20130;-70
2022/04/03 03:00:28;;;;;;;;;;;;;;;2.47;79.61;98733.44;1716086;81;20423;-69
2022/04/03 03:02:55;;;;;;;;;;;;;;;2.42;79.53;98730.51;1749815;80;20164;-71
2022/04/03 03:05:21;;;;;;;;;;;;;;;2.37;79.53;98732.84;1750162;80;20160;-71
2022/04/03 03:07:48;;;;;;;;;;;;;;;2.34;79.58;98735.84;1734854;80;20315;-69
2022/04/03 03:10:17;;;;;;;;;;;;;;;2.31;79.70;98740.12;1732026;80;20966;-72
2022/04/03 03:12:48;;;;;;;;;;;;;;;2.31;79.61;98753.27;1748917;80;20766;-72
2022/04/03 03:15:14;;;;;;;;;;;;;;;2.31;79.52;98748.81;1748278;80;20179;-71
2022/04/03 03:17:41;;;;;;;;;;;;;;;2.34;79.69;98760.31;1738208;80;20134;-71
2022/04/03 03:20:08;;;;;;;;;;;;;;;2.40;79.99;98758.80;1686588;82;20227;-71
2022/04/03 03:22:36;;;;;;;;;;;;;;;2.44;79.71;98749.56;1675452;85;20182;-72
2022/04/03 03:25:05;;;;;;;;;;;;;;;2.07;79.65;98693.29;1711032;84;20498;-71
2022/04/03 03:27:32;;;;;;;;;;;;;;;2.50;79.73;98759.88;1693299;84;20224;-70
2022/04/03 03:29:59;;;;;;;;;;;;;;;2.53;79.52;98755.09;1707785;83;20181;-71
2022/04/03 03:32:26;;;;;;;;;;;;;;;2.57;79.48;98754.75;1709307;84;20171;-68
2022/04/03 03:34:52;;;;;;;;;;;;;;;2.54;79.51;98762.47;1705147;84;20151;-71
2022/04/03 03:37:19;;;;;;;;;;;;;;;2.48;79.88;98762.67;1688692;84;20151;-69
2022/04/03 03:39:45;;;;;;;;;;;;;;;2.47;80.12;98766.82;1690330;84;20139;-71
2022/04/03 03:42:14;;;;;;;;;;;;;;;2.43;80.03;98766.82;1709439;84;20578;-73
2022/04/03 03:44:41;;;;;;;;;;;;;;;2.39;80.15;98766.86;1699589;84;20142;-73
2022/04/03 03:47:08;;;;;;;;;;;;;;;2.33;80.11;98758.66;1701956;84;20998;-70
2022/04/03 03:49:34;;;;;;;;;;;;;;;2.29;79.94;98764.45;1708129;84;20518;-71
2022/04/03 03:52:00;;;;;;;;;;;;;;;2.28;80.30;98768.06;1703772;83;20181;-70
2022/04/03 03:54:27;;;;;;;;;;;;;;;2.29;80.37;98760.51;1706647;84;20507;-71
2022/04/03 03:56:55;;;;;;;;;;;;;;;2.27;80.38;98762.50;1705120;84;20137;-70
2022/04/03 03:59:22;;;;;;;;;;;;;;;2.24;80.55;98762.36;1712148;84;20156;-70
2022/04/03 04:01:49;;;;;;;;;;;;;;;2.25;80.80;98772.37;1706787;84;20489;-71
2022/04/03 04:04:15;;;;;;;;;;;;;;;2.28;80.78;98772.84;1708104;84;20447;-72
2022/04/03 04:06:41;;;;;;;;;;;;;;;2.31;80.74;98776.42;1702664;84;20165;-72
2022/04/03 04:09:09;;;;;;;;;;;;;;;2.35;80.82;98776.90;1702321;84;20412;-71
2022/04/03 04:11:36;;;;;;;;;;;;;;;2.36;80.40;98777.23;1695112;84;20151;-72
2022/04/03 04:14:02;;;;;;;;;;;;;;;2.34;80.47;98773.45;1684456;84;20204;-67
2022/04/03 04:16:29;;;;;;;;;;;;;;;1.96;80.42;98717.34;1683824;84;20143;-67
2022/04/03 04:18:55;;;;;;;;;;;;;;;2.35;80.49;98787.41;1659224;85;20152;-71
2022/04/03 04:21:22;;;;;;;;;;;;;;;2.36;80.61;98779.86;1668306;85;20133;-73
2022/04/03 04:23:48;;;;;;;;;;;;;;;2.37;80.52;98779.36;1683938;84;20140;-70
2022/04/03 04:26:15;;;;;;;;;;;;;;;2.37;80.56;98784.11;1674003;84;20139;-72
2022/04/03 04:28:42;;;;;;;;;;;;;;;2.40;80.49;98792.98;1683789;84;20316;-72
2022/04/03 04:31:08;;;;;;;;;;;;;;;2.41;80.54;98795.11;1685432;84;20184;-70
2022/04/03 04:33:35;;;;;;;;;;;;;;;2.41;80.58;98793.31;1675690;84;20107;-72
2022/04/03 04:36:02;;;;;;;;;;;;;;;2.41;80.67;98805.16;1708371;82;20198;-71
2022/04/03 04:38:29;;;;;;;;;;;;;;;2.41;80.59;98803.00;1696327;83;20132;-70
2022/04/03 04:40:55;;;;;;;;;;;;;;;2.41;80.62;98804.31;1694098;83;20273;-72
2022/04/03 04:43:22;;;;;;;;;;;;;;;2.42;80.47;98800.70;1693447;83;20134;-71
2022/04/03 04:45:48;;;;;;;;;;;;;;;2.41;80.42;98798.58;1700609;83;20161;-67
2022/04/03 04:48:16;;;;;;;;;;;;;;;2.42;80.63;98802.83;1666770;85;20167;-72
2022/04/03 04:50:43;;;;;;;;;;;;;;;2.45;80.86;98809.07;1671329;84;20187;-70
2022/04/03 04:53:09;;;;;;;;;;;;;;;2.47;80.84;98816.79;1660411;84;20198;-71
2022/04/03 04:55:36;;;;;;;;;;;;;;;2.46;80.79;98815.14;1690715;83;20159;-69
2022/04/03 04:58:03;;;;;;;;;;;;;;;2.41;80.60;98811.73;1685923;84;20220;-71
2022/04/03 05:00:30;;;;;;;;;;;;;;;2.41;80.79;98819.62;1675534;85;20210;-72
2022/04/03 05:02:57;;;;;;;;;;;;;;;2.41;81.01;98809.57;1660432;84;20149;-73
2022/04/03 05:05:24;;;;;;;;;;;;;;;2.42;80.27;98813.34;1682106;83;20185;-70
2022/04/03 05:07:54;;;;;;;;;;;;;;;2.37;80.47;98811.73;1663991;85;20123;-71
2022/04/03 05:10:24;;;;;;;;;;;;;;;2.37;80.77;98816.17;1692187;83;20146;-68
2022/04/03 05:12:52;;;;;;;;;;;;;;;2.30;80.93;98791.89;1689122;83;20468;-70
2022/04/03 05:15:21;;;;;;;;;;;;;;;2.45;80.81;98808.23;1690407;83;20168;-72
2022/04/03 05:17:48;;;;;;;;;;;;;;;2.48;80.85;98803.44;1684048;83;20480;-72
2022/04/03 05:20:15;;;;;;;;;;;;;;;2.50;80.68;98806.72;1690887;83;20157;-72
2022/04/03 05:22:42;;;;;;;;;;;;;;;2.51;80.86;98806.23;1692905;83;20185;-71
2022/04/03 05:25:11;;;;;;;;;;;;;;;2.53;80.97;98814.27;1712546;82;20147;-68
2022/04/03 05:27:41;;;;;;;;;;;;;;;2.51;81.00;98812.81;1704107;83;20446;-70
2022/04/03 05:30:09;;;;;;;;;;;;;;;2.48;81.30;98811.33;1709613;82;20132;-72
2022/04/03 05:32:38;;;;;;;;;;;;;;;2.50;81.77;98806.72;1700624;83;20318;-70
2022/04/03 05:35:08;;;;;;;;;;;;;;;2.49;82.02;98800.34;1707141;83;20144;-72
2022/04/03 05:37:34;;;;;;;;;;;;;;;2.50;82.26;98805.40;1723145;83;20135;-73
2022/04/03 05:40:00;;;;;;;;;;;;;;;2.55;82.66;98802.27;1724083;82;20243;-72
2022/04/03 05:42:27;;;;;;;;;;;;;;;2.58;82.83;98797.14;1720426;82;20117;-71
2022/04/03 05:44:53;;;;;;;;;;;;;;;2.60;83.19;98801.25;1693966;82;20125;-72
2022/04/03 05:47:19;;;;;;;;;;;;;;;2.66;83.41;98798.42;1681665;84;20137;-70
2022/04/03 05:49:47;;;;;;;;;;;;;;;2.69;83.77;98800.69;1683687;84;20111;-71
2022/04/03 05:52:13;;;;;;;;;;;;;;;2.70;83.89;98799.70;1684930;84;20161;-71
2022/04/03 05:54:40;;;;;;;;;;;;;;;2.68;83.96;98802.50;1679903;84;20133;-72
2022/04/03 05:57:09;;;;;;;;;;;;;;;2.66;84.13;98799.23;1682165;84;20424;-71
2022/04/03 05:59:35;;;;;;;;;;;;;;;2.66;84.46;98797.91;1684324;84;20465;-71
2022/04/03 06:02:01;;;;;;;;;;;;;;;2.66;84.40;98802.37;1712225;83;20156;-71
2022/04/03 06:04:29;;;;;;;;;;;;;;;2.63;84.40;98798.25;1720864;82;20184;-70
2022/04/03 06:06:55;;;;;;;;;;;;;;;2.64;84.79;98801.22;1711932;82;20166;-72
2022/04/03 06:09:21;;;;;;;;;;;;;;;2.66;84.70;98805.00;1715926;83;20276;-73
2022/04/03 06:11:47;;;;;;;;;;;;;;;2.67;85.01;98807.94;1688925;83;20474;-71
2022/04/03 06:14:14;;;;;;;;;;;;;;;2.65;85.16;98808.61;1671904;83;20118;-72
2022/04/03 06:16:41;;;;;;;;;;;;;;;2.65;85.55;98804.16;1658924;85;20416;-73
2022/04/03 06:19:07;;;;;;;;;;;;;;;2.67;86.27;98803.48;1672372;83;20176;-73
2022/04/03 06:21:34;;;;;;;;;;;;;;;2.65;86.16;98804.66;1677583;83;20633;-72
2022/04/03 06:24:00;;;;;;;;;;;;;;;2.63;86.15;98809.28;1657850;85;20114;-72
2022/04/03 06:26:27;;;;;;;;;;;;;;;2.62;86.11;98810.27;1663475;85;20166;-71
2022/04/03 06:28:54;;;;;;;;;;;;;;;2.59;86.27;98802.73;1680569;84;20176;-73
2022/04/03 06:31:21;;;;;;;;;;;;;;;2.54;86.48;98807.19;1658302;85;20435;-72
2022/04/03 06:33:47;;;;;;;;;;;;;;;2.53;87.02;98803.75;1662611;85;20170;-71
2022/04/03 06:36:13;;;;;;;;;;;;;;;2.53;87.15;98809.01;1676284;85;20449;-72
2022/04/03 06:38:39;;;;;;;;;;;;;;;2.56;87.15;98814.91;1665323;84;20246;-71
2022/04/03 06:41:07;;;;;;;;;;;;;;;2.58;87.20;98808.50;1662688;85;20147;-78
2022/04/03 06:43:33;;;;;;;;;;;;;;;2.60;87.11;98810.46;1701665;82;20149;-70
2022/04/03 06:46:00;;;;;;;;;;;;;;;2.61;87.31;98823.11;1699285;83;20132;-72
2022/04/03 06:48:27;;;;;;;;;;;;;;;2.58;87.10;98820.81;1693667;84;20163;-72
2022/04/03 06:50:54;;;;;;;;;;;;;;;2.57;87.24;98818.69;1690947;84;20138;-73
2022/04/03 06:53:21;;;;;;;;;;;;;;;2.51;86.57;98816.26;1690023;84;20192;-72
2022/04/03 06:55:47;;;;;;;;;;;;;;;2.49;87.21;98818.75;1690641;84;20165;-75
2022/04/03 06:58:13;;;;;;;;;;;;;;;2.55;87.68;98818.55;1693465;83;20139;-72
2022/04/03 07:00:41;;;;;;;;;;;;;;;2.59;87.70;98818.02;1690552;83;20214;-74
2022/04/03 07:03:08;;;;;;;;;;;;;;;2.63;87.12;98823.75;1692421;84;21003;-70
2022/04/03 07:05:34;;;;;;;;;;;;;;;2.61;87.07;98825.73;1689091;84;20139;-72
2022/04/03 07:08:01;;;;;;;;;;;;;;;2.65;87.53;98834.91;1688283;84;20155;-69
2022/04/03 07:10:29;;;;;;;;;;;;;;;2.73;87.59;98841.43;1685609;84;20243;-72
2022/04/03 07:12:59;;;;;;;;;;;;;;;2.56;87.33;98795.19;1694314;84;20184;-72
2022/04/03 07:15:27;;;;;;;;;;;;;;;2.85;87.46;98844.50;1706848;84;20200;-71
2022/04/03 07:17:54;;;;;;;;;;;;;;;2.85;86.82;98837.41;1702041;84;20301;-73
2022/04/03 07:20:20;;;;;;;;;;;;;;;2.85;86.30;98836.10;1699576;84;20113;-72
2022/04/03 07:22:47;;;;;;;;;;;;;;;2.80;86.25;98837.62;1703095;82;20132;-73
2022/04/03 07:25:14;;;;;;;;;;;;;;;2.75;85.97;98848.68;1681919;83;20500;-68
2022/04/03 07:27:42;;;;;;;;;;;;;;;2.70;86.03;98846.55;1714849;83;20172;-71
2022/04/03 07:30:12;;;;;;;;;;;;;;;2.71;86.16;98846.89;1705418;83;20110;-68
2022/04/03 07:32:38;;;;;;;;;;;;;;;2.66;86.10;98846.59;1707551;83;20168;-72
2022/04/03 07:35:06;;;;;;;;;;;;;;;2.60;86.14;98847.77;1687893;82;20254;-72
2022/04/03 07:37:33;;;;;;;;;;;;;;;2.59;86.27;98840.38;1717318;83;20107;-73
2022/04/03 07:40:00;;;;;;;;;;;;;;;2.60;86.57;98849.08;1717440;82;20261;-69
2022/04/03 07:42:26;;;;;;;;;;;;;;;2.63;86.37;98850.06;1722299;82;20989;-70
2022/04/03 07:44:52;;;;;;;;;;;;;;;2.65;86.53;98844.94;1721625;82;20101;-73
2022/04/03 07:47:19;;;;;;;;;;;;;;;2.68;86.88;98845.10;1719740;83;20470;-73
2022/04/03 07:49:45;;;;;;;;;;;;;;;2.70;86.38;98845.23;1715834;83;20128;-72
2022/04/03 07:52:11;;;;;;;;;;;;;;;2.77;86.57;98847.17;1715741;82;20223;-71
2022/04/03 07:54:38;;;;;;;;;;;;;;;2.83;86.34;98845.17;1719912;83;20181;-72
2022/04/03 07:57:06;;;;;;;;;;;;;;;2.86;85.89;98854.86;1696553;83;20206;-72
2022/04/03 07:59:34;;;;;;;;;;;;;;;2.86;85.74;98846.96;1690485;83;20113;-73
2022/04/03 08:02:01;;;;;;;;;;;;;;;2.88;84.95;98855.50;1684028;83;20135;-73
2022/04/03 08:04:29;;;;;;;;;;;;;;;2.91;85.07;98845.11;1689815;83;20188;-73
2022/04/03 08:06:56;;;;;;;;;;;;;;;2.93;84.39;98852.33;1688465;83;20165;-75
2022/04/03 08:09:23;;;;;;;;;;;;;;;2.95;84.43;98861.38;1692668;83;20440;-73
2022/04/03 08:11:50;;;;;;;;;;;;;;;2.97;84.12;98861.50;1694383;83;20148;-70
2022/04/03 08:14:18;;;;;;;;;;;;;;;3.00;84.65;98860.36;1686247;84;20138;-73
2022/04/03 08:16:45;;;;;;;;;;;;;;;3.02;84.65;98862.31;1694890;83;20199;-69
2022/04/03 08:19:14;;;;;;;;;;;;;;;3.00;84.11;98861.16;1698691;83;20812;-71
2022/04/03 08:21:41;;;;;;;;;;;;;;;2.90;85.21;98849.56;1691078;83;20197;-69
2022/04/03 08:24:08;;;;;;;;;;;;;;;3.06;85.32;98869.67;1695422;83;20137;-72
2022/04/03 08:26:35;;;;;;;;;;;;;;;3.12;84.46;98865.52;1694377;84;20150;-72
2022/04/03 08:29:02;;;;;;;;;;;;;;;3.14;84.68;98868.78;1689260;83;20208;-72
2022/04/03 08:31:29;;;;;;;;;;;;;;;3.15;83.82;98877.02;1701166;82;20255;-72
2022/04/03 08:33:56;;;;;;;;;;;;;;;3.21;84.23;98876.81;1673589;84;20187;-72
2022/04/03 08:36:23;;;;;;;;;;;;;;;3.29;83.55;98880.69;1717176;82;20462;-73
2022/04/03 08:38:50;;;;;;;;;;;;;;;3.38;84.37;98878.81;1717497;82;20147;-72
2022/04/03 08:41:17;;;;;;;;;;;;;;;3.26;83.37;98857.36;1710164;82;20141;-73
2022/04/03 08:43:46;;;;;;;;;;;;;;;3.50;81.44;98888.76;1714093;82;20170;-73
2022/04/03 08:46:13;;;;;;;;;;;;;;;3.50;82.74;98886.13;1695270;83;20165;-70
2022/04/03 08:48:44;;;;;;;;;;;;;;;3.51;81.63;98882.98;1683202;83;20110;-72
2022/04/03 08:51:11;;;;;;;;;;;;;;;3.13;82.00;98834.25;1699596;82;20190;-73
2022/04/03 08:53:39;;;;;;;;;;;;;;;3.49;81.97;98887.61;1678012;84;20649;-73
2022/04/03 08:56:05;;;;;;;;;;;;;;;3.49;81.06;98890.25;1676613;83;20127;-72
2022/04/03 08:58:32;;;;;;;;;;;;;;;3.57;81.58;98896.75;1676709;84;20179;-72
2022/04/03 09:01:01;;;;;;;;;;;;;;;3.69;80.24;98891.38;1677984;83;20419;-72
2022/04/03 09:03:28;;;;;;;;;;;;;;;3.67;79.59;98889.42;1678802;84;20150;-73
2022/04/03 09:06:12;;;;;;;;;;;;;;;3.64;80.18;98881.06;1677720;83;20246;-73
2022/04/03 09:08:39;;;;;;;;;;;;;;;3.64;80.19;98881.87;1686796;83;20105;-73
2022/04/03 09:11:07;;;;;;;;;;;;;;;3.64;81.26;98887.14;1694953;83;20162;-70
2022/04/03 09:13:35;;;;;;;;;;;;;;;3.69;80.80;98883.48;1684352;83;20604;-74
2022/04/03 09:16:03;;;;;;;;;;;;;;;3.75;80.98;98887.69;1682848;83;20131;-73
2022/04/03 09:18:44;;;;;;;;;;;;;;;3.70;79.46;98901.41;1693524;83;20433;-74
2022/04/03 09:21:22;;;;;;;;;;;;;;;3.54;80.17;98897.09;1694608;83;20140;-72
2022/04/03 09:23:59;;;;;;;;;;;;;;;3.46;80.63;98901.13;1706112;82;20152;-74
2022/04/03 09:26:26;;;;;;;;;;;;;;;3.47;81.28;98891.73;1712736;82;20158;-72
2022/04/03 09:29:16;;;;;;;;;;;;;;;3.50;81.18;98899.77;1701422;82;20111;-73
2022/04/03 09:31:45;;;;;;;;;;;;;;;3.52;81.54;98889.88;1677573;83;20122;-74
2022/04/03 09:34:19;;;;;;;;;;;;;;;3.48;81.57;98902.61;1695900;82;20315;-71
2022/04/03 09:37:00;;;;;;;;;;;;;;;3.49;82.02;98904.73;1693807;83;20187;-73
2022/04/03 09:39:29;;;;;;;;;;;;;;;3.45;82.45;98911.36;1692480;81;20145;-72
2022/04/03 09:42:02;;;;;;;;;;;;;;;3.40;81.45;98905.29;1680135;83;20160;-73
2022/04/03 09:44:34;;;;;;;;;;;;;;;3.41;82.50;98903.47;1690073;83;20544;-72
2022/04/03 09:47:29;;;;;;;;;;;;;;;3.48;82.45;98905.72;1686674;83;20170;-73
2022/04/03 09:50:06;;;;;;;;;;;;;;;3.55;82.63;98902.70;1687749;83;20197;-73
2022/04/03 09:52:51;;;;;;;;;;;;;;;3.66;82.17;98908.86;1685488;83;20139;-72
2022/04/03 09:55:18;;;;;;;;;;;;;;;3.69;81.11;98909.83;1688508;83;20177;-73
2022/04/03 09:57:47;;;;;;;;;;;;;;;3.63;80.19;98901.30;1656502;84;20204;-74
2022/04/03 10:00:29;;;;;;;;;;;;;;;3.56;79.43;98912.25;1654221;84;20264;-72
2022/04/03 10:04:16;;;;;;;1.63;1.30;;;;;;;3.66;78.88;98908.05;1860715;75;22691;-74
2022/04/03 10:06:44;;;;;;;3.17;1.53;;;;;;;3.62;78.69;98908.90;1847685;75;20985;-74
2022/04/03 10:09:15;;;;;;;1.07;1.07;;;;;;;3.68;80.16;98910.00;1845654;75;21500;-72
2022/04/03 10:11:43;;;;;;;1.60;1.50;;;;;;;3.77;79.23;98916.84;1838984;75;21572;-68
2022/04/03 10:14:11;;;;;;;1.03;1.03;;;;;;;3.46;78.89;98858.47;1806289;77;21386;-72
2022/04/03 10:16:41;;;;;;;1.00;0.90;;;;;;;3.88;78.93;98907.65;1813783;77;21060;-71
2022/04/03 10:19:09;;;;;;;0.80;0.77;;;;;;;3.87;77.97;98917.39;1812817;77;21056;-73
2022/04/03 10:21:52;;;;;;;1.13;0.90;;;;;;;3.82;77.95;98915.78;1818799;77;21032;-73
2022/04/03 10:24:28;;;;;;;1.47;1.10;;;;;;;3.75;77.63;98919.31;1786392;77;20985;-72
2022/04/03 10:27:06;;;;;;;0.83;0.40;;;;;;;3.70;77.59;98918.55;1789556;78;21442;-72
2022/04/03 10:29:39;;;;;;;0.97;0.97;;;;;;;3.54;78.22;98908.95;1780305;79;21041;-74
2022/04/03 10:32:07;;;;;;;0.57;0.57;;;;;;;3.59;78.58;98917.15;1749162;79;21513;-73
2022/04/03 10:34:52;;;;;;;0.50;0.50;;;;;;;3.64;79.57;98928.48;1765756;78;21571;-74
2022/04/03 10:37:31;;;;;;;0.63;0.63;;;;;;;3.71;79.29;98929.39;1712419;82;21033;-73
2022/04/03 10:40:13;;;;;;;0.73;0.40;;;;;;;3.65;78.18;98919.06;1710864;82;21089;-74
2022/04/03 10:43:01;;;;;;;1.00;1.00;;;;;;;3.62;78.50;98927.85;1714341;82;21124;-74
2022/04/03 10:45:46;;;;;;;1.60;1.40;;;;;;;3.64;78.72;98929.81;1731762;80;21008;-72
2022/04/03 10:48:26;;;;;;;2.57;1.40;;;;;;;3.67;76.59;98930.27;1731991;80;21005;-70
2022/04/03 10:51:12;;;;;;;1.33;1.20;;;;;;;3.60;76.07;98925.39;1739389;80;21567;-71
2022/04/03 10:53:43;;;;;;;0.60;0.60;;;;;;;3.49;76.87;98927.94;1723947;80;21056;-73
2022/04/03 10:56:23;;;;;;;0.70;0.70;;;;;;;3.44;77.41;98940.00;1731876;80;21064;-73
2022/04/03 10:58:54;;;;;;;0.93;0.93;;;;;;;3.31;76.81;98941.42;1709869;82;21008;-73
2022/04/03 11:01:33;;;;;;;0.60;0.60;;;;;;;3.20;76.95;98947.58;1723543;80;21493;-70
2022/04/03 11:04:08;;;;;;;0.50;0.50;;;;;;;3.15;77.77;98952.06;1745012;80;21093;-72
2022/04/03 11:06:41;;;;;;;0.60;0.53;;;;;;;3.23;78.06;98945.41;1743466;80;21085;-73
2022/04/03 11:09:25;;;;;;;0.80;0.80;;;;;;;3.31;78.20;98941.91;1697887;82;21391;-74
2022/04/03 11:12:00;;;;;;;0.57;0.57;;;;;;;3.34;78.06;98942.88;1739343;80;21145;-72
2022/04/03 11:14:57;;;;;;;0.80;0.80;;;;;;;3.28;77.60;98950.98;1741065;80;21026;-72
2022/04/03 11:17:51;;;;;;;1.57;0.70;;;;;;;3.25;78.12;98946.05;1691405;82;22349;-73
2022/04/03 11:20:40;;;;;;;0.60;0.60;;;;;;;3.26;77.45;98946.39;1692691;82;21569;-71
2022/04/03 11:23:14;;;;;;;1.00;1.00;;;;;;;3.24;77.63;98954.13;1694470;82;21011;-73
2022/04/03 11:25:42;;;;;;;0.70;0.70;;;;;;;3.22;77.70;98955.64;1685512;83;22129;-71
2022/04/03 11:28:10;;;;;;;1.07;1.07;;;;;;;3.23;78.04;98955.95;1691159;83;22221;-72
2022/04/03 11:30:37;;;;;;;0.80;0.80;;;;;;;3.29;76.66;98965.77;1685923;81;21049;-71
2022/04/03 11:33:05;;;;;;;0.87;0.87;;;;;;;3.35;76.10;98963.44;1713740;81;21056;-73
2022/04/03 11:35:38;;;;;;;1.40;1.30;;;;;;;3.31;76.08;98960.34;1714543;81;21383;-70
2022/04/03 11:38:06;;;;;;;0.90;0.90;;;;;;;3.27;76.55;98965.13;1725873;81;21029;-72
2022/04/03 11:40:36;;;;;;;0.53;0.53;;;;;;;3.28;76.12;98965.47;1725328;81;21518;-71
2022/04/03 11:43:18;;;;;;;0.70;0.70;;;;;;;3.26;74.80;98969.28;1714589;81;21066;-73
2022/04/03 11:46:04;;;;;;;0.83;0.83;;;;;;;3.25;74.84;98973.70;1716918;81;21012;-71
2022/04/03 11:48:34;;;;;;;1.47;0.90;;;;;;;3.25;75.79;98972.39;1733447;81;21032;-72
2022/04/03 11:51:15;;;;;;;0.70;0.70;;;;;;;3.22;75.40;98980.66;1728634;81;21068;-72
2022/04/03 11:53:45;;;;;;;0.80;0.70;;;;;;;3.19;75.90;98978.36;1725093;81;21082;-70
2022/04/03 11:56:17;;;;;;;2.53;1.17;;;;;;;3.21;76.27;98977.69;1724931;81;21366;-72
2022/04/03 11:58:48;;;;;;;0.90;0.80;;;;;;;3.22;76.12;98979.34;1706942;82;21068;-74
2022/04/03 12:01:28;;;;;;;0.50;0.50;;;;;;;3.30;76.09;98979.28;1700058;82;21152;-70
2022/04/03 12:04:05;;;;;;;0.57;0.57;;;;;;;3.36;75.53;98986.16;1692623;82;21010;-72
2022/04/03 12:06:32;;;;;;;0.83;0.83;;;;;;;3.30;75.81;98987.69;1695253;82;21116;-71
2022/04/03 12:09:11;;;;;;;1.00;0.90;;;;;;;3.22;76.32;98992.98;1705514;82;21147;-73
2022/04/03 12:11:42;;;;;;;1.42;1.32;;;;;;;3.14;76.67;98993.04;1706512;81;21506;-72
2022/04/03 12:14:09;;;;;;;0.97;0.97;;;;;;;3.10;76.90;98993.88;1728693;81;21053;-71
2022/04/03 12:16:39;;;;;;;2.00;1.30;;;;;;;3.15;76.86;98992.88;1724325;81;21029;-72
2022/04/03 12:19:15;;;;;;;1.53;0.90;;;;;;;3.17;76.23;98997.47;1725041;81;21498;-72
2022/04/03 12:21:54;;;;;;;2.43;1.50;;;;;;;3.15;76.55;98995.50;1730571;81;21049;-75
2022/04/03 12:24:27;;;;;;;1.33;1.03;;;;;;;2.99;78.20;98993.77;1737602;80;21011;-73
2022/04/03 12:27:12;;;;;;;0.93;0.90;;;;;;;2.84;78.24;98996.80;1743050;80;20998;-74
2022/04/03 12:29:41;;;;;;;0.70;0.40;;;;;;;2.79;78.59;98994.70;1738620;80;21109;-72
2022/04/03 12:32:12;;;;;;;0.70;0.70;;;;;;;2.84;79.12;98994.98;1744916;80;21973;-72
2022/04/03 12:34:42;;;;;;;0.70;0.50;;;;;;;2.85;78.93;98993.19;1731388;80;21100;-72
2022/04/03 12:37:11;;;;;;;0.47;0.47;;;;;;;2.85;79.18;99000.58;1731387;81;21060;-72
2022/04/03 12:39:54;;;;;;;1.20;1.20;;;;;;;2.87;79.95;98999.10;1728079;81;21025;-73
2022/04/03 12:42:35;;;;;;;1.87;1.20;;;;;;;2.84;80.86;99004.19;1731489;81;21052;-74
2022/04/03 12:45:20;;;;;;;0.80;0.80;;;;;;;2.73;80.88;99008.04;1730783;81;21079;-69
2022/04/03 12:48:05;;;;;;;1.10;1.00;;;;;;;2.66;82.22;99008.89;1725039;81;21049;-74
2022/04/03 12:50:41;;;;;;;1.13;1.03;;;;;;;2.58;82.70;99015.47;1733364;81;21334;-72